Time;durP1;ratioP1;P1;durP2;ratioP2;P2;SDS_P1;SDS_P2;PMS_P1;PMS_P2;Temp;Humidity;BMP_temperature;BMP_pressure;BME280_temperature;BME280_humidity;BME280_pressure;Samples;Min_cycle;Max_cycle;Signal;HPM_P1;HPM_P2
2022/03/30 00:00:04;;;;;;;44.50;22.80;;;;;;;6.73;76.59;97453.78;106012;1279;22570;-75
2022/03/30 00:02:58;;;;;;;44.00;23.60;;;;;;;6.73;76.20;97452.16;105975;1280;22722;-75
2022/03/30 00:05:39;;;;;;;50.40;24.00;;;;;;;6.73;75.79;97459.04;106077;1280;23307;-74
2022/03/30 00:08:20;;;;;;;44.50;23.70;;;;;;;6.71;75.81;97453.88;105608;1281;137582;-74
2022/03/30 00:11:01;;;;;;;47.00;24.70;;;;;;;6.70;75.36;97452.87;105878;1281;24273;-74
2022/03/30 00:13:42;;;;;;;44.40;24.00;;;;;;;6.65;75.47;97458.10;105806;1280;137377;-74
2022/03/30 00:16:24;;;;;;;50.90;26.30;;;;;;;6.60;74.94;97453.58;105864;1280;22714;-75
2022/03/30 00:18:51;;;;;;;41.60;24.00;;;;;;;6.59;75.16;97452.10;105741;1280;138617;-74
2022/03/30 00:21:19;;;;;;;43.80;23.20;;;;;;;6.58;75.32;97450.30;106122;1280;22567;-74
2022/03/30 00:24:00;;;;;;;42.70;23.70;;;;;;;6.60;75.52;97446.81;105867;1280;25374;-74
2022/03/30 00:26:27;;;;;;;42.60;23.20;;;;;;;6.59;75.71;97443.76;105941;1280;138017;-75
2022/03/30 00:29:08;;;;;;;45.60;24.90;;;;;;;6.55;75.75;97437.69;105854;1280;30836;-75
2022/03/30 00:31:49;;;;;;;45.50;24.10;;;;;;;6.50;75.68;97439.60;105670;1280;137384;-75
2022/03/30 00:34:16;;;;;;;41.80;23.20;;;;;;;6.47;76.00;97439.02;105925;1280;24237;-75
2022/03/30 00:36:43;;;;;;;46.70;25.30;;;;;;;6.47;76.01;97435.34;105835;1280;138225;-75
2022/03/30 00:39:10;;;;;;;44.70;22.90;;;;;;;6.49;76.06;97432.67;105870;1280;29945;-74
2022/03/30 00:41:51;;;;;;;47.10;24.40;;;;;;;6.52;75.89;97431.27;105896;1280;24298;-75
2022/03/30 00:44:18;;;;;;;43.20;24.40;;;;;;;6.55;75.50;97426.01;105823;1280;137450;-74
2022/03/30 00:46:45;;;;;;;41.80;23.10;;;;;;;6.55;75.18;97421.47;105869;1280;25406;-74
2022/03/30 00:49:13;;;;;;;43.10;23.40;;;;;;;6.55;75.01;97422.38;105934;1279;138405;-75
2022/03/30 00:51:40;;;;;;;45.40;22.60;;;;;;;6.55;74.87;97417.34;106038;1280;22808;-75
2022/03/30 00:54:21;;;;;;;45.30;23.90;;;;;;;6.51;74.85;97414.80;105859;1280;22542;-75
2022/03/30 00:57:03;;;;;;;38.90;22.20;;;;;;;6.50;74.86;97418.13;105682;1280;138432;-75
2022/03/30 00:59:33;;;;;;;39.20;22.00;;;;;;;6.49;75.35;97421.80;105748;1280;22583;-75
2022/03/30 01:02:15;;;;;;;42.90;22.40;;;;;;;6.49;75.27;97417.95;105785;1280;138183;-75
2022/03/30 01:04:45;;;;;;;42.50;23.30;;;;;;;6.50;75.40;97422.79;106016;1280;22617;-75
2022/03/30 01:07:13;;;;;;;44.40;24.20;;;;;;;6.50;75.74;97417.16;105722;1280;137521;-74
2022/03/30 01:09:54;;;;;;;39.10;23.00;;;;;;;6.51;75.59;97414.41;105919;1280;29937;-76
2022/03/30 01:12:38;;;;;;;43.30;23.70;;;;;;;6.50;75.76;97414.77;105834;1280;22580;-75
2022/03/30 01:15:08;;;;;;;44.90;24.50;;;;;;;6.51;75.29;97413.08;105764;1280;138674;-75
2022/03/30 01:17:49;;;;;;;40.80;23.10;;;;;;;6.52;74.86;97409.67;105790;1281;24397;-75
2022/03/30 01:20:21;;;;;;;42.30;22.50;;;;;;;6.51;75.02;97408.57;105686;1280;137520;-75
2022/03/30 01:23:02;;;;;;;46.60;24.20;;;;;;;6.44;75.28;97407.86;105721;1280;26487;-75
2022/03/30 01:25:30;;;;;;;48.60;24.60;;;;;;;6.43;75.27;97407.36;105745;1280;138190;-75
2022/03/30 01:28:11;;;;;;;44.00;24.20;;;;;;;6.39;75.43;97399.83;105940;1280;24453;-75
2022/03/30 01:33:52;;;;;;;47.80;24.80;;;;;;;6.30;75.24;97398.33;105766;1280;22727;-75
2022/03/30 01:36:37;;;;;;;45.10;23.20;;;;;;;6.27;75.47;97391.73;105721;1281;22723;-75
2022/03/30 01:39:05;;;;;;;44.90;23.00;;;;;;;6.25;75.55;97391.16;105687;1280;137353;-75
2022/03/30 01:41:46;;;;;;;45.20;23.60;;;;;;;6.23;75.49;97387.06;105790;1280;22560;-75
2022/03/30 01:44:27;;;;;;;47.00;24.90;;;;;;;6.20;75.42;97385.97;105705;1280;137583;-75
2022/03/30 01:46:54;;;;;;;48.00;25.40;;;;;;;6.16;75.53;97383.27;105839;1280;24329;-75
2022/03/30 01:49:35;;;;;;;44.90;24.20;;;;;;;6.14;75.63;97381.15;105654;1280;137155;-74
2022/03/30 01:52:03;;;;;;;44.60;24.10;;;;;;;6.11;75.65;97381.29;105883;1280;22999;-74
2022/03/30 01:54:45;;;;;;;43.70;23.50;;;;;;;6.11;75.97;97380.48;105689;1280;24264;-74
2022/03/30 01:57:26;;;;;;;43.20;24.00;;;;;;;6.12;75.91;97378.65;105693;1280;137226;-74
2022/03/30 02:00:07;;;;;;;49.80;26.10;;;;;;;6.13;75.92;97375.42;105976;1280;24237;-74
2022/03/30 02:02:40;;;;;;;49.00;26.40;;;;;;;6.13;75.86;97373.44;105454;1280;137322;-74
2022/03/30 02:05:21;;;;;;;46.30;25.30;;;;;;;6.14;75.88;97371.33;105548;1280;22607;-75
2022/03/30 02:07:48;;;;;;;47.90;25.30;;;;;;;6.13;75.74;97371.41;105621;1280;137609;-75
2022/03/30 02:10:29;;;;;;;53.60;27.30;;;;;;;6.11;75.42;97365.16;105792;1280;23911;-77
2022/03/30 02:13:10;;;;;;;47.00;25.60;;;;;;;6.08;75.58;97363.65;105651;1280;138433;-75
2022/03/30 02:15:37;;;;;;;44.10;24.30;;;;;;;6.05;75.92;97361.55;105733;1280;22566;-74
2022/03/30 02:18:19;;;;;;;45.60;26.00;;;;;;;6.00;75.89;97355.35;105736;1280;22661;-75
2022/03/30 02:21:00;;;;;;;49.70;26.10;;;;;;;6.00;75.83;97351.63;105695;1280;137457;-75
2022/03/30 02:23:42;;;;;;;48.90;26.50;;;;;;;6.00;76.02;97350.70;105738;1280;24384;-75
2022/03/30 02:26:09;;;;;;;49.20;26.80;;;;;;;5.99;75.90;97348.31;105887;1280;137578;-75
2022/03/30 02:28:53;;;;;;;52.90;26.10;;;;;;;5.96;75.39;97348.08;105867;1280;24065;-75
2022/03/30 02:31:34;;;;;;;46.50;23.90;;;;;;;5.93;75.09;97346.58;105992;1280;138244;-75
2022/03/30 02:34:15;;;;;;;43.70;23.60;;;;;;;5.91;75.19;97342.50;105856;1280;25481;-75
2022/03/30 02:36:56;;;;;;;48.10;24.30;;;;;;;5.90;75.19;97340.07;105951;1280;25489;-75
2022/03/30 02:39:38;;;;;;;46.60;24.00;;;;;;;5.90;74.97;97340.71;105699;1280;137288;-75
2022/03/30 02:42:18;;;;;;;50.90;24.30;;;;;;;5.85;74.43;97341.17;105736;1280;25320;-75
2022/03/30 02:44:46;;;;;;;46.60;23.50;;;;;;;5.82;73.98;97339.55;105882;1280;137853;-75
2022/03/30 02:50:26;;;;;;;44.10;22.70;;;;;;;5.68;73.99;97338.48;105671;1280;137274;-75
2022/03/30 02:53:07;;;;;;;49.30;24.30;;;;;;;5.62;74.15;97336.38;105703;1280;23636;-75
2022/03/30 02:55:48;;;;;;;46.40;24.50;;;;;;;5.58;74.11;97332.13;105593;1280;138169;-75
2022/03/30 02:58:29;;;;;;;44.90;23.70;;;;;;;5.57;74.37;97332.20;105692;1280;22574;-75
2022/03/30 03:01:10;;;;;;;42.30;23.90;;;;;;;5.53;74.35;97332.57;105744;1280;22577;-77
2022/03/30 03:03:51;;;;;;;48.40;25.10;;;;;;;5.54;74.53;97342.58;105616;1280;137135;-74
2022/03/30 03:06:18;;;;;;;51.70;24.20;;;;;;;5.51;74.52;97339.66;105687;1281;22563;-77
2022/03/30 03:08:45;;;;;;;45.50;23.90;;;;;;;5.48;74.69;97335.62;105749;1281;137266;-75
2022/03/30 03:11:26;;;;;;;51.00;24.50;;;;;;;5.47;74.83;97337.81;105825;1280;22566;-75
2022/03/30 03:14:09;;;;;;;52.20;26.10;;;;;;;5.45;74.77;97333.91;105701;1280;137410;-74
2022/03/30 03:16:36;;;;;;;;;;;;;;;5.45;74.83;97335.48;105866;1279;24392;-74
2022/03/30 03:19:16;;;;;;;45.40;24.30;;;;;;;5.45;74.94;97337.39;105822;1280;22543;-74
2022/03/30 03:21:43;;;;;;;48.40;23.60;;;;;;;5.46;74.96;97338.96;105765;1280;137969;-77
2022/03/30 03:24:10;;;;;;;46.20;24.20;;;;;;;5.46;75.11;97335.02;105715;1281;22570;-74
2022/03/30 03:26:37;;;;;;;47.90;25.30;;;;;;;5.46;75.06;97335.01;105516;1281;137744;-76
2022/03/30 03:29:04;;;;;;;52.10;25.70;;;;;;;5.44;75.09;97338.01;105695;1281;25368;-74
2022/03/30 03:31:31;;;;;;;49.20;24.90;;;;;;;5.42;74.82;97339.53;105982;1280;137198;-74
2022/03/30 03:34:12;;;;;;;50.40;26.50;;;;;;;5.41;75.06;97341.02;105877;1280;24306;-74
2022/03/30 03:36:39;;;;;;;48.90;25.30;;;;;;;5.39;74.92;97341.21;105896;1280;25324;-77
2022/03/30 03:39:08;;;;;;;47.40;24.00;;;;;;;5.39;75.06;97341.69;105679;1280;137983;-75
2022/03/30 03:41:49;;;;;;;46.40;24.90;;;;;;;5.39;75.28;97343.95;105758;1280;24428;-75
2022/03/30 03:44:30;;;;;;;46.80;23.50;;;;;;;5.40;75.33;97343.48;105642;1281;137926;-74
2022/03/30 03:46:58;;;;;;;49.70;25.80;;;;;;;5.42;75.63;97346.02;105722;1281;22569;-74
2022/03/30 03:49:24;;;;;;;49.50;25.50;;;;;;;5.43;75.61;97341.13;105701;1280;22890;-75
2022/03/30 03:52:07;;;;;;;52.70;25.20;;;;;;;5.45;75.57;97347.20;105580;1280;137037;-76
2022/03/30 03:54:34;;;;;;;48.40;25.50;;;;;;;5.46;75.50;97345.89;106014;1280;22567;-75
2022/03/30 03:57:01;;;;;;;55.40;33.40;;;;;;;5.48;75.39;97345.97;105840;1280;137564;-75
2022/03/30 03:59:42;;;;;;;55.40;29.50;;;;;;;5.48;75.45;97344.94;105814;1280;24439;-75
2022/03/30 04:02:09;;;;;;;47.30;26.20;;;;;;;5.47;75.24;97347.36;105574;1280;137680;-75
2022/03/30 04:04:38;;;;;;;45.90;26.10;;;;;;;5.46;75.43;97343.35;105582;1282;22565;-75
2022/03/30 04:07:19;;;;;;;51.60;26.80;;;;;;;5.45;75.60;97341.55;105777;1281;22859;-75
2022/03/30 04:10:00;;;;;;;48.90;25.10;;;;;;;5.44;75.59;97343.24;105812;1281;136995;-75
2022/03/30 04:12:41;;;;;;;53.90;25.50;;;;;;;5.41;75.65;97340.27;105715;1280;25487;-76
2022/03/30 04:15:22;;;;;;;51.00;23.70;;;;;;;5.40;75.54;97336.96;105708;1280;137917;-75
2022/03/30 04:18:04;;;;;;;46.60;24.90;;;;;;;5.41;75.63;97341.02;105724;1280;25252;-75
2022/03/30 04:20:31;;;;;;;48.80;25.40;;;;;;;5.40;75.64;97343.61;105703;1280;137403;-75
2022/03/30 04:23:12;;;;;;;49.50;25.20;;;;;;;5.40;75.67;97340.67;106009;1280;22544;-75
2022/03/30 04:25:53;;;;;;;46.60;25.60;;;;;;;5.38;75.44;97339.61;105689;1280;137496;-75
2022/03/30 04:28:35;;;;;;;49.80;26.20;;;;;;;5.37;75.40;97336.13;105846;1280;25462;-75
2022/03/30 04:31:16;;;;;;;46.60;23.90;;;;;;;5.35;75.16;97337.65;106091;1280;24269;-75
2022/03/30 04:33:43;;;;;;;49.80;26.90;;;;;;;5.32;74.98;97341.66;105572;1280;137818;-75
2022/03/30 04:36:11;;;;;;;51.30;25.70;;;;;;;5.28;75.09;97338.23;105702;1281;24240;-75
2022/03/30 04:38:38;;;;;;;44.30;25.30;;;;;;;5.26;75.09;97337.44;105623;1281;137711;-75
2022/03/30 04:41:19;;;;;;;49.20;24.90;;;;;;;5.24;75.17;97336.86;105724;1281;24408;-75
2022/03/30 04:43:46;;;;;;;52.00;26.40;;;;;;;5.22;75.37;97336.27;105615;1280;138208;-75
2022/03/30 04:46:27;;;;;;;48.50;24.70;;;;;;;5.19;75.28;97337.99;105750;1280;22538;-75
2022/03/30 04:49:09;;;;;;;51.70;26.70;;;;;;;5.13;75.32;97337.70;105945;1279;22566;-75
2022/03/30 04:51:50;;;;;;;53.10;26.50;;;;;;;5.07;75.45;97335.47;105617;1280;137315;-74
2022/03/30 04:54:31;;;;;;;51.80;26.50;;;;;;;5.04;75.68;97336.21;105693;1281;30409;-74
2022/03/30 04:57:12;;;;;;;54.20;26.20;;;;;;;5.05;75.91;97336.07;105527;1281;138331;-77
2022/03/30 04:59:55;;;;;;;49.80;26.20;;;;;;;5.07;75.82;97330.43;105531;1281;22574;-75
2022/03/30 05:02:37;;;;;;;54.20;26.90;;;;;;;5.08;76.09;97331.45;105587;1280;137414;-75
2022/03/30 05:05:18;;;;;;;52.20;24.80;;;;;;;5.11;75.95;97330.97;105917;1280;23910;-75
2022/03/30 05:07:45;;;;;;;48.60;26.30;;;;;;;5.12;75.94;97330.09;105892;1280;137328;-75
2022/03/30 05:10:26;;;;;;;53.20;27.70;;;;;;;5.15;75.91;97328.23;105789;1280;22566;-73
2022/03/30 05:13:07;;;;;;;54.50;25.70;;;;;;;5.16;75.62;97329.18;105803;1280;24091;-75
2022/03/30 05:15:34;;;;;;;58.30;27.60;;;;;;;5.16;75.81;97331.71;105659;1280;137772;-75
2022/03/30 05:18:15;;;;;;;51.10;25.10;;;;;;;5.17;75.79;97332.12;105830;1281;25357;-75
2022/03/30 05:20:56;;;;;;;56.90;27.40;;;;;;;5.19;75.93;97334.64;105543;1281;137451;-75
2022/03/30 05:23:37;;;;;;;55.40;27.30;;;;;;;5.22;75.78;97336.70;105726;1280;22615;-75
2022/03/30 05:26:18;;;;;;;58.80;27.40;;;;;;;5.21;75.63;97340.40;105658;1280;137449;-75
2022/03/30 05:28:59;;;;;;;54.20;27.10;;;;;;;5.19;75.99;97338.63;105658;1280;22672;-75
2022/03/30 05:31:39;;;;;;;57.50;28.90;;;;;;;5.17;75.95;97344.48;105708;1280;22659;-75
2022/03/30 05:34:20;;;;;;;54.30;26.30;;;;;;;5.16;75.83;97342.51;105865;1280;138323;-75
2022/03/30 05:36:48;;;;;;;59.30;27.80;;;;;;;5.17;75.97;97339.25;105732;1281;25353;-75
2022/03/30 05:39:31;;;;;;;57.50;27.50;;;;;;;5.18;76.48;97340.77;105647;1281;137578;-75
2022/03/30 05:41:58;;;;;;;53.70;27.00;;;;;;;5.18;76.68;97340.13;105789;1281;26094;-75
2022/03/30 05:44:39;;;;;;;51.90;26.50;;;;;;;5.15;77.08;97341.67;105659;1280;137482;-75
2022/03/30 05:47:20;;;;;;;55.80;27.10;;;;;;;5.15;77.26;97341.78;105816;1280;22572;-77
2022/03/30 05:49:47;;;;;;;57.80;29.00;;;;;;;5.17;77.51;97342.52;105772;1280;24341;-74
2022/03/30 05:52:14;;;;;;;59.40;27.80;;;;;;;5.19;77.22;97341.65;105473;1280;138007;-75
2022/03/30 05:54:55;;;;;;;51.20;25.80;;;;;;;5.22;77.16;97345.92;105702;1280;22544;-75
2022/03/30 05:57:36;;;;;;;56.60;26.60;;;;;;;5.25;77.28;97345.08;105484;1281;138374;-76
2022/03/30 06:00:07;;;;;;;52.50;26.50;;;;;;;5.26;77.04;97343.92;105542;1281;25249;-75
2022/03/30 06:02:40;;;;;;;50.20;25.90;;;;;;;5.30;76.86;97340.39;105500;1281;137658;-75
2022/03/30 06:05:21;;;;;;;52.30;25.00;;;;;;;5.33;76.53;97337.15;105656;1280;24231;-74
2022/03/30 06:08:03;;;;;;;48.10;24.20;;;;;;;5.37;76.20;97337.76;105858;1280;137666;-74
2022/03/30 06:10:30;;;;;;;43.90;22.20;;;;;;;5.40;76.18;97337.33;105952;1280;25310;-75
2022/03/30 06:13:03;;;;;;;51.90;25.60;;;;;;;5.41;75.79;97335.91;106099;1280;22563;-76
2022/03/30 06:15:43;;;;;;;45.20;21.90;;;;;;;5.45;75.38;97331.32;105662;1281;138697;-75
2022/03/30 06:18:24;;;;;;;51.90;24.40;;;;;;;5.50;74.97;97339.86;106304;1281;22541;-75
2022/03/30 06:21:06;;;;;;;50.00;24.60;;;;;;;5.58;75.26;97343.73;105832;1280;138258;-76
2022/03/30 06:23:47;;;;;;;55.00;26.60;;;;;;;5.65;75.38;97339.75;105867;1281;22554;-75
2022/03/30 06:26:14;;;;;;;45.90;23.70;;;;;;;5.70;75.85;97342.30;105762;1280;137429;-75
2022/03/30 06:28:41;;;;;;;53.10;26.50;;;;;;;5.75;75.75;97336.33;106256;1280;25242;-76
2022/03/30 06:31:12;;;;;;;51.60;25.40;;;;;;;5.83;75.70;97336.96;106138;1280;23025;-76
2022/03/30 06:33:53;;;;;;;53.60;27.10;;;;;;;5.92;75.44;97334.59;105740;1280;138383;-76
2022/03/30 06:36:21;;;;;;;48.60;23.50;;;;;;;6.03;74.96;97339.46;105616;1281;25765;-76
2022/03/30 06:38:48;;;;;;;46.90;24.00;;;;;;;6.12;74.03;97339.45;105862;1281;137699;-75
2022/03/30 06:41:19;;;;;;;50.60;25.10;;;;;;;6.19;73.69;97340.66;106031;1280;22580;-74
2022/03/30 06:43:46;;;;;;;52.70;26.70;;;;;;;6.26;73.72;97336.88;106007;1281;22646;-75
2022/03/30 06:46:16;;;;;;;54.70;24.40;;;;;;;6.34;73.98;97335.44;105923;1280;137612;-75
2022/03/30 06:48:57;;;;;;;51.40;25.60;;;;;;;6.41;74.13;97338.09;105896;1280;22576;-75
2022/03/30 06:51:24;;;;;;;48.40;25.60;;;;;;;6.45;73.77;97334.04;105983;1280;137684;-77
2022/03/30 06:53:51;;;;;;;52.20;26.90;;;;;;;6.48;73.68;97335.88;106025;1280;22612;-75
2022/03/30 06:56:18;;;;;;;52.10;26.50;;;;;;;6.54;73.86;97337.11;106289;1280;137845;-75
2022/03/30 06:58:59;;;;;;;52.50;26.40;;;;;;;6.60;73.50;97337.84;106025;1281;23336;-75
2022/03/30 07:01:40;;;;;;;50.80;26.30;;;;;;;6.68;73.57;97340.20;106063;1281;22560;-75
2022/03/30 07:04:07;;;;;;;47.90;24.70;;;;;;;6.76;73.33;97335.33;105666;1281;137818;-75
2022/03/30 07:12:33;;;;;;;43.50;19.70;;;;;;;7.00;69.49;97336.82;106069;1279;25306;-75
2022/03/30 07:15:01;;;;;;;38.70;20.70;;;;;;;7.05;68.33;97340.45;106028;1280;137327;-75
2022/03/30 07:17:30;;;;;;;39.90;21.00;;;;;;;7.12;68.22;97343.69;105728;1281;22566;-75
2022/03/30 07:19:57;;;;;;;;;;;;;;;7.21;68.13;97343.05;105963;1281;22524;-75
2022/03/30 07:22:24;;;;;;;31.90;16.20;;;;;;;7.27;66.40;97344.25;105820;1281;123160;-75
2022/03/30 07:25:05;;;;;;;37.50;17.60;;;;;;;7.36;66.27;97339.98;105911;1281;22564;-75
2022/03/30 07:27:32;;;;;;;36.80;20.10;;;;;;;7.44;65.71;97340.41;106343;1280;137352;-75
2022/03/30 07:30:00;;;;;;;36.60;19.40;;;;;;;7.50;65.42;97342.89;106148;1280;353721;-75
2022/03/30 07:32:27;;;;;;;35.60;18.40;;;;;;;7.58;65.16;97344.80;106513;1280;137510;-74
2022/03/30 07:34:54;;;;;;;39.60;20.60;;;;;;;7.67;65.25;97337.96;106038;1280;25378;-74
2022/03/30 07:37:36;;;;;;;39.80;18.90;;;;;;;7.78;64.83;97336.56;105940;1281;23300;-75
2022/03/30 07:40:05;;;;;;;41.20;19.00;;;;;;;7.84;64.79;97332.78;105949;1280;137194;-75
2022/03/30 07:42:33;;;;;;;;;;;;;;;7.87;63.93;97327.71;105714;1281;22653;-75
2022/03/30 07:45:14;;;;;;;36.00;17.40;;;;;;;7.86;63.89;97321.82;105658;1281;123762;-75
2022/03/30 07:47:42;;;;;;;36.90;20.30;;;;;;;7.87;63.51;97320.63;105785;1280;22543;-75
2022/03/30 07:50:11;;;;;;;34.90;19.30;;;;;;;7.89;62.82;97318.73;105892;1280;137533;-75
2022/03/30 07:52:41;;;;;;;34.70;17.80;;;;;;;7.90;62.84;97319.30;105991;1280;24295;-75
2022/03/30 07:55:11;;;;;;;41.80;20.50;;;;;;;7.94;62.54;97322.48;105927;1280;24374;-75
2022/03/30 07:57:42;;;;;;;41.10;20.00;;;;;;;7.99;61.99;97325.46;105750;1280;137393;-76
2022/03/30 08:00:12;;;;;;;38.90;19.50;;;;;;;8.08;61.96;97327.86;105441;1281;25392;-76
2022/03/30 08:02:53;;;;;;;41.00;20.40;;;;;;;8.20;62.36;97325.98;105632;1281;137284;-75
2022/03/30 08:05:21;;;;;;;38.70;21.10;;;;;;;8.31;62.20;97324.66;105283;1282;24399;-75
2022/03/30 08:07:51;;;;;;;39.30;18.70;;;;;;;8.41;61.72;97325.46;105842;1280;25631;-76
2022/03/30 08:10:18;;;;;;;41.10;20.60;;;;;;;8.48;60.72;97322.39;105845;1280;136939;-74
2022/03/30 08:12:59;;;;;;;36.50;19.40;;;;;;;8.50;60.69;97319.42;105812;1280;25327;-74
2022/03/30 08:15:42;;;;;;;40.80;20.00;;;;;;;8.56;60.67;97319.24;105808;1280;137249;-76
2022/03/30 08:18:10;;;;;;;31.80;16.70;;;;;;;8.59;59.93;97317.73;105807;1280;22585;-74
2022/03/30 08:23:36;;;;;;;32.00;16.90;;;;;;;8.62;57.05;97311.20;105699;1281;22546;-74
2022/03/30 08:26:17;;;;;;;33.00;18.10;;;;;;;8.64;57.47;97312.58;105587;1281;137342;-74
2022/03/30 08:28:44;;;;;;;28.70;15.60;;;;;;;8.70;57.04;97311.70;105939;1280;22719;-74
2022/03/30 08:31:11;;;;;;;29.40;16.40;;;;;;;8.77;56.39;97307.66;105875;1280;22537;-74
2022/03/30 08:33:38;;;;;;;31.60;16.40;;;;;;;8.83;56.30;97303.95;105687;1280;137292;-74
2022/03/30 08:36:07;;;;;;;32.00;18.10;;;;;;;8.92;56.63;97306.35;105943;1280;22541;-74
2022/03/30 08:38:48;;;;;;;24.60;13.30;;;;;;;9.05;55.80;97299.91;105662;1280;137110;-74
2022/03/30 08:41:16;;;;;;;30.50;16.20;;;;;;;9.12;54.12;97297.77;106558;1280;22596;-74
2022/03/30 08:43:43;;;;;;;28.10;15.90;;;;;;;9.16;54.98;97295.23;106001;1280;25316;-74
2022/03/30 08:46:10;;;;;;;38.90;19.60;;;;;;;9.23;55.17;97296.09;106458;1280;137874;-74
2022/03/30 08:48:38;;;;;;;32.10;17.10;;;;;;;9.28;55.03;97297.67;105975;1280;24270;-74
2022/03/30 08:51:07;;;;;;;35.30;18.10;;;;;;;9.36;54.71;97297.92;105838;1280;138006;-74
2022/03/30 08:53:34;;;;;;;28.20;16.10;;;;;;;9.48;54.92;97296.23;106251;1281;24407;-74
2022/03/30 08:56:01;;;;;;;41.20;18.90;;;;;;;9.64;55.12;97293.06;105927;1281;137830;-74
2022/03/30 08:58:29;;;;;;;33.60;17.30;;;;;;;9.80;56.00;97294.96;105797;1280;23380;-74
2022/03/30 09:01:10;;;;;;;32.20;17.50;;;;;;;9.95;55.82;97291.61;106287;1280;22626;-76
2022/03/30 09:04:02;;;;;;;35.20;18.80;;;;;;;10.11;55.05;97292.05;106298;1280;137389;-74
2022/03/30 09:06:48;;;;;;;36.30;18.70;;;;;;;10.18;53.97;97289.46;106073;1280;22584;-74
2022/03/30 09:09:18;;;;;;;32.60;17.40;;;;;;;10.26;53.99;97288.86;106046;1280;137731;-74
2022/03/30 09:11:55;;;;;;;32.00;17.50;;;;;;;10.34;53.46;97287.05;106204;1281;22633;-74
2022/03/30 09:14:26;;;;;;;29.10;16.40;;;;;;;10.40;52.46;97289.23;105627;1281;137761;-74
2022/03/30 09:17:09;;;;;;;34.50;18.40;;;;;;;10.47;51.98;97286.28;105879;1281;22571;-74
2022/03/30 09:19:38;;;;;;;38.20;20.40;;;;;;;10.56;53.12;97286.00;105592;1280;24228;-74
2022/03/30 09:22:22;;;;;;;33.80;18.90;;;;;;;10.70;53.27;97286.80;105538;1280;137480;-74
2022/03/30 09:25:08;;;;;;;35.00;19.00;;;;;;;10.85;53.87;97290.80;105844;1280;22554;-74
2022/03/30 09:27:39;;;;;;;36.10;19.80;;;;;;;10.99;53.28;97289.90;106017;1280;137623;-74
2022/03/30 09:30:21;;;;;;;32.30;18.30;;;;;;;11.11;51.69;97281.08;105872;1282;31004;-76
2022/03/30 09:33:03;;;;;;;35.30;21.00;;;;;;;11.12;50.60;97275.85;105774;1282;137550;-74
2022/03/30 09:35:45;;;;;;;34.10;19.30;;;;;;;11.19;50.81;97274.42;105783;1281;22812;-74
2022/03/30 09:38:18;;;;;;;30.50;18.20;;;;;;;11.32;51.01;97270.44;105758;1281;138711;-76
2022/03/30 09:41:04;;;;;;;33.20;18.40;;;;;;;11.42;50.21;97262.88;106176;1280;22525;-74
2022/03/30 09:43:45;;;;;;;30.30;17.80;;;;;;;11.54;50.81;97259.71;106180;1280;22554;-74
2022/03/30 09:46:15;;;;;;;31.70;18.50;;;;;;;11.67;50.42;97254.34;105875;1280;137509;-77
2022/03/30 09:48:56;;;;;;;33.10;18.00;;;;;;;11.82;50.00;97248.52;105931;1280;23583;-74
2022/03/30 09:51:27;;;;;;;31.50;19.10;;;;;;;11.98;49.01;97245.29;105887;1281;137676;-74
2022/03/30 09:53:54;;;;;;;34.90;18.90;;;;;;;12.06;47.62;97240.59;105861;1281;22578;-74
2022/03/30 09:56:23;;;;;;;31.00;17.90;;;;;;;12.12;47.56;97241.30;105935;1279;137779;-74
2022/03/30 09:59:01;;;;;;;33.00;19.30;;;;;;;12.23;47.63;97234.72;105800;1281;25953;-74
2022/03/30 10:01:33;;;;;;;32.90;18.50;;;;;;;12.38;48.01;97233.33;105978;1280;24931;-73
2022/03/30 10:04:14;;;;;;;29.50;18.30;;;;;;;12.55;47.51;97226.73;105928;1280;138041;-73
2022/03/30 10:06:59;;;;;;;30.40;18.30;;;;;;;12.68;47.17;97224.89;105893;1280;22552;-73
2022/03/30 10:09:27;;;;;;;32.40;17.10;;;;;;;12.80;46.61;97219.86;105926;1280;138156;-76
2022/03/30 10:11:54;;;;;;;26.30;17.40;;;;;;;12.85;45.29;97213.90;105847;1281;22544;-74
2022/03/30 10:14:21;;;;;;;36.20;18.70;;;;;;;12.83;45.16;97215.02;105824;1281;137737;-74
2022/03/30 10:16:48;;;;;;;29.20;18.20;;;;;;;12.87;44.95;97215.08;105770;1281;25437;-74
2022/03/30 10:19:29;;;;;;;42.10;19.40;;;;;;;12.83;43.88;97212.88;106243;1280;23652;-74
2022/03/30 10:22:28;;;;;;;31.80;17.60;;;;;;;12.76;43.52;97210.91;106166;1280;137673;-74
2022/03/30 10:25:16;;;;;;;34.20;17.50;;;;;;;12.63;43.48;97205.05;106359;1280;22738;-74
2022/03/30 10:28:24;;;;;;;32.00;17.80;;;;;;;12.64;44.06;97201.29;106165;1280;137637;-73
2022/03/30 10:30:56;;;;;;;28.70;17.60;;;;;;;12.78;44.29;97196.29;106054;1281;22563;-74
2022/03/30 10:33:42;;;;;;;34.80;20.10;;;;;;;12.90;44.63;97194.39;106191;1280;137570;-74
2022/03/30 10:36:22;;;;;;;35.70;20.90;;;;;;;13.05;45.38;97191.48;106409;1281;24236;-74
2022/03/30 10:39:07;;;;;;;37.50;20.60;;;;;;;13.19;44.85;97188.80;106466;1281;138097;-74
2022/03/30 10:42:04;;;;;;;36.30;19.60;;;;;;;13.33;44.99;97189.01;106514;1280;30430;-74
2022/03/30 10:44:43;;;;;;;32.00;19.50;;;;;;;13.44;43.88;97190.02;106126;1280;138328;-73
2022/03/30 10:47:20;;;;;;;35.50;20.00;;;;;;;13.55;43.89;97185.98;106664;1280;22561;-73
2022/03/30 10:49:56;;;;;;;33.70;19.80;;;;;;;13.69;43.42;97182.81;106347;1280;22640;-73
2022/03/30 10:52:43;;;;;;;35.40;19.90;;;;;;;13.81;43.00;97176.02;106287;1281;137316;-74
2022/03/30 10:55:24;;;;;;;30.20;18.10;;;;;;;13.80;41.75;97170.45;105771;1281;22547;-73
2022/03/30 10:57:58;;;;;;;35.20;19.40;;;;;;;13.85;42.61;97169.88;105922;1278;138288;-74
2022/03/30 11:00:39;;;;;;;33.70;19.90;;;;;;;13.95;42.40;97164.74;106485;1277;22668;-73
2022/03/30 11:03:20;;;;;;;36.50;21.00;;;;;;;14.04;42.55;97158.69;106503;1277;138326;-73
2022/03/30 11:06:09;;;;;;;33.30;20.10;;;;;;;14.17;42.13;97158.63;106188;1277;23367;-73
2022/03/30 11:08:51;;;;;;;33.80;17.80;;;;;;;14.28;41.31;97155.98;106248;1277;138671;-73
2022/03/30 11:11:34;;;;;;;31.90;18.60;;;;;;;14.24;39.89;97148.98;105987;1278;25350;-74
2022/03/30 11:14:26;;;;;;;34.40;19.10;;;;;;;14.21;40.20;97145.46;106483;1278;138262;-74
2022/03/30 11:17:09;;;;;;;28.20;19.00;;;;;;;14.27;40.33;97146.14;106541;1281;23415;-74
2022/03/30 11:19:54;;;;;;;;;;;;;;;14.34;40.44;97141.84;106430;1279;23241;-74
2022/03/30 11:22:23;;;;;;;31.80;17.20;;;;;;;14.46;41.39;97136.23;106138;1280;124274;-74
2022/03/30 11:25:09;;;;;;;31.00;18.20;;;;;;;14.59;40.64;97134.44;106768;1280;25370;-74
2022/03/30 11:27:37;;;;;;;29.30;17.80;;;;;;;14.70;40.24;97134.55;106320;1278;138186;-74
2022/03/30 11:30:18;;;;;;;32.50;18.00;;;;;;;14.84;40.20;97127.27;105959;1280;23171;-73
2022/03/30 11:32:51;;;;;;;28.30;18.00;;;;;;;14.94;39.86;97132.59;106181;1280;138368;-73
2022/03/30 11:35:24;;;;;;;33.20;19.00;;;;;;;15.03;39.16;97128.85;106058;1279;24473;-73
2022/03/30 11:37:57;;;;;;;33.10;19.00;;;;;;;15.06;38.65;97127.89;105985;1280;25310;-73
2022/03/30 11:40:42;;;;;;;28.70;16.90;;;;;;;15.07;38.52;97126.84;106094;1279;137334;-74
2022/03/30 11:43:10;;;;;;;27.90;17.60;;;;;;;15.13;38.66;97121.27;105987;1280;24443;-73
2022/03/30 11:45:39;;;;;;;35.20;19.20;;;;;;;15.12;37.60;97113.67;106109;1280;137504;-73
2022/03/30 11:48:20;;;;;;;30.60;17.60;;;;;;;15.12;38.28;97110.88;106236;1280;24126;-73
2022/03/30 11:50:53;;;;;;;28.10;17.80;;;;;;;15.14;38.67;97112.19;105816;1280;137802;-73
2022/03/30 11:53:35;;;;;;;28.70;17.00;;;;;;;15.17;38.43;97109.58;106069;1280;33081;-73
2022/03/30 11:56:08;;;;;;;33.60;17.60;;;;;;;15.17;37.84;97109.06;105842;1280;23599;-73
2022/03/30 11:58:37;;;;;;;29.00;17.10;;;;;;;15.28;38.77;97102.73;105817;1280;137617;-73
2022/03/30 12:01:21;;;;;;;26.60;17.80;;;;;;;15.41;38.58;97099.20;105590;1281;25266;-73
2022/03/30 12:03:53;;;;;;;25.40;15.00;;;;;;;15.48;38.76;97095.65;105709;1280;138118;-73